sensor_id;sensor_type;location;lat;lon;timestamp;pressure;altitude;pressure_sealevel;temperature;humidity
28935;BME280;16044;52.726;-2.108;2023-09-12T00:02:29;100304.28;;;18.12;100.00
28935;BME280;16044;52.726;-2.108;2023-09-12T00:05:00;100308.94;;;18.12;100.00
28935;BME280;16044;52.726;-2.108;2023-09-12T00:07:31;100311.06;;;18.10;100.00
28935;BME280;16044;52.726;-2.108;2023-09-12T00:10:01;100312.97;;;18.09;100.00
28935;BME280;16044;52.726;-2.108;2023-09-12T00:12:31;100311.78;;;18.05;100.00
28935;BME280;16044;52.726;-2.108;2023-09-12T00:15:02;100312.38;;;18.07;100.00
28935;BME280;16044;52.726;-2.108;2023-09-12T00:17:37;100309.47;;;18.02;100.00
28935;BME280;16044;52.726;-2.108;2023-09-12T00:20:08;100304.22;;;18.01;100.00
28935;BME280;16044;52.726;-2.108;2023-09-12T00:22:39;100308.41;;;18.03;100.00
28935;BME280;16044;52.726;-2.108;2023-09-12T00:25:09;100317.09;;;18.00;100.00
28935;BME280;16044;52.726;-2.108;2023-09-12T00:27:40;100311.84;;;17.99;100.00
28935;BME280;16044;52.726;-2.108;2023-09-12T00:30:11;100311.47;;;17.95;100.00
28935;BME280;16044;52.726;-2.108;2023-09-12T00:32:46;100305.97;;;17.95;100.00
28935;BME280;16044;52.726;-2.108;2023-09-12T00:35:16;100304.31;;;17.94;100.00
28935;BME280;16044;52.726;-2.108;2023-09-12T00:37:46;100304.69;;;17.98;100.00
28935;BME280;16044;52.726;-2.108;2023-09-12T00:40:17;100301.81;;;17.92;100.00
28935;BME280;16044;52.726;-2.108;2023-09-12T00:42:47;100300.72;;;17.93;100.00
28935;BME280;16044;52.726;-2.108;2023-09-12T00:45:18;100300.97;;;17.92;100.00
28935;BME280;16044;52.726;-2.108;2023-09-12T00:47:51;100305.81;;;17.90;100.00
28935;BME280;16044;52.726;-2.108;2023-09-12T00:50:22;100308.34;;;17.91;100.00
28935;BME280;16044;52.726;-2.108;2023-09-12T00:52:53;100303.72;;;17.92;100.00
28935;BME280;16044;52.726;-2.108;2023-09-12T00:55:24;100308.13;;;17.93;100.00
28935;BME280;16044;52.726;-2.108;2023-09-12T00:57:55;100310.63;;;17.95;100.00
28935;BME280;16044;52.726;-2.108;2023-09-12T01:00:25;100300.03;;;17.98;100.00
28935;BME280;16044;52.726;-2.108;2023-09-12T01:02:59;100296.09;;;17.94;100.00
28935;BME280;16044;52.726;-2.108;2023-09-12T01:05:30;100294.03;;;17.89;100.00
28935;BME280;16044;52.726;-2.108;2023-09-12T01:08:01;100293.41;;;17.87;100.00
28935;BME280;16044;52.726;-2.108;2023-09-12T01:10:31;100284.38;;;17.87;100.00
28935;BME280;16044;52.726;-2.108;2023-09-12T01:13:02;100291.50;;;17.88;100.00
28935;BME280;16044;52.726;-2.108;2023-09-12T01:15:33;100285.63;;;17.84;100.00
28935;BME280;16044;52.726;-2.108;2023-09-12T01:18:06;100288.59;;;17.83;100.00
28935;BME280;16044;52.726;-2.108;2023-09-12T01:20:39;100288.84;;;17.81;100.00
28935;BME280;16044;52.726;-2.108;2023-09-12T01:23:23;100290.50;;;17.82;100.00
28935;BME280;16044;52.726;-2.108;2023-09-12T01:26:29;100290.75;;;17.81;100.00
28935;BME280;16044;52.726;-2.108;2023-09-12T01:29:04;100294.91;;;17.83;100.00
28935;BME280;16044;52.726;-2.108;2023-09-12T01:31:37;100289.06;;;17.80;100.00
28935;BME280;16044;52.726;-2.108;2023-09-12T01:34:08;100293.22;;;17.82;100.00
28935;BME280;16044;52.726;-2.108;2023-09-12T01:36:39;100291.19;;;17.78;100.00
28935;BME280;16044;52.726;-2.108;2023-09-12T01:39:09;100285.72;;;17.78;100.00
28935;BME280;16044;52.726;-2.108;2023-09-12T01:41:42;100289.13;;;17.73;100.00
28935;BME280;16044;52.726;-2.108;2023-09-12T01:44:18;100286.03;;;17.69;100.00
28935;BME280;16044;52.726;-2.108;2023-09-12T01:46:51;100293.16;;;17.70;100.00
28935;BME280;16044;52.726;-2.108;2023-09-12T01:49:24;100284.56;;;17.67;100.00
28935;BME280;16044;52.726;-2.108;2023-09-12T01:51:56;100292.13;;;17.71;100.00
28935;BME280;16044;52.726;-2.108;2023-09-12T01:54:27;100290.44;;;17.70;100.00
28935;BME280;16044;52.726;-2.108;2023-09-12T01:56:58;100297.00;;;17.69;100.00
28935;BME280;16044;52.726;-2.108;2023-09-12T01:59:31;100294.25;;;17.69;100.00
28935;BME280;16044;52.726;-2.108;2023-09-12T02:02:02;100293.16;;;17.70;100.00
28935;BME280;16044;52.726;-2.108;2023-09-12T02:04:34;100298.66;;;17.70;100.00
28935;BME280;16044;52.726;-2.108;2023-09-12T02:07:04;100292.56;;;17.68;100.00
28935;BME280;16044;52.726;-2.108;2023-09-12T02:09:34;100300.56;;;17.70;100.00
28935;BME280;16044;52.726;-2.108;2023-09-12T02:12:05;100292.56;;;17.68;100.00
28935;BME280;16044;52.726;-2.108;2023-09-12T02:14:39;100284.78;;;17.65;100.00
28935;BME280;16044;52.726;-2.108;2023-09-12T02:17:09;100275.50;;;17.66;100.00
28935;BME280;16044;52.726;-2.108;2023-09-12T02:19:39;100285.03;;;17.64;100.00
28935;BME280;16044;52.726;-2.108;2023-09-12T02:22:10;100281.69;;;17.62;100.00
28935;BME280;16044;52.726;-2.108;2023-09-12T02:24:40;100278.31;;;17.60;100.00
28935;BME280;16044;52.726;-2.108;2023-09-12T02:27:11;100292.78;;;17.67;100.00
28935;BME280;16044;52.726;-2.108;2023-09-12T02:29:44;100295.63;;;17.60;100.00
28935;BME280;16044;52.726;-2.108;2023-09-12T02:32:14;100288.44;;;17.59;100.00
28935;BME280;16044;52.726;-2.108;2023-09-12T02:34:45;100288.44;;;17.59;100.00
28935;BME280;16044;52.726;-2.108;2023-09-12T02:37:15;100282.56;;;17.56;100.00
28935;BME280;16044;52.726;-2.108;2023-09-12T02:39:45;100280.31;;;17.52;100.00
28935;BME280;16044;52.726;-2.108;2023-09-12T02:42:15;100280.75;;;17.49;100.00
28935;BME280;16044;52.726;-2.108;2023-09-12T02:44:48;100271.72;;;17.49;100.00
28935;BME280;16044;52.726;-2.108;2023-09-12T02:47:19;100270.63;;;17.50;100.00
28935;BME280;16044;52.726;-2.108;2023-09-12T02:49:49;100268.34;;;17.47;100.00
28935;BME280;16044;52.726;-2.108;2023-09-12T02:52:20;100268.56;;;17.45;100.00
28935;BME280;16044;52.726;-2.108;2023-09-12T02:54:50;100272.59;;;17.43;100.00
28935;BME280;16044;52.726;-2.108;2023-09-12T02:57:20;100268.63;;;17.39;100.00
28935;BME280;16044;52.726;-2.108;2023-09-12T02:59:53;100267.59;;;17.40;100.00
28935;BME280;16044;52.726;-2.108;2023-09-12T03:02:24;100271.38;;;17.39;100.00
28935;BME280;16044;52.726;-2.108;2023-09-12T03:04:56;100268.03;;;17.37;100.00
28935;BME280;16044;52.726;-2.108;2023-09-12T03:07:26;100271.38;;;17.39;100.00
28935;BME280;16044;52.726;-2.108;2023-09-12T03:09:57;100265.06;;;17.38;100.00
28935;BME280;16044;52.726;-2.108;2023-09-12T03:12:27;100265.06;;;17.38;100.00
28935;BME280;16044;52.726;-2.108;2023-09-12T03:15:00;100266.81;;;17.32;100.00
28935;BME280;16044;52.726;-2.108;2023-09-12T03:17:33;100268.50;;;17.33;100.00
28935;BME280;16044;52.726;-2.108;2023-09-12T03:20:04;100273.97;;;17.33;100.00
28935;BME280;16044;52.726;-2.108;2023-09-12T03:22:36;100266.38;;;17.36;100.00
28935;BME280;16044;52.726;-2.108;2023-09-12T03:25:07;100265.97;;;17.32;100.00
28935;BME280;16044;52.726;-2.108;2023-09-12T03:27:37;100268.50;;;17.33;100.00
28935;BME280;16044;52.726;-2.108;2023-09-12T03:30:11;100270.38;;;17.33;100.00
28935;BME280;16044;52.726;-2.108;2023-09-12T03:32:41;100261.34;;;17.32;100.00
28935;BME280;16044;52.726;-2.108;2023-09-12T03:35:12;100257.53;;;17.33;100.00
28935;BME280;16044;52.726;-2.108;2023-09-12T03:37:42;100259.66;;;17.31;100.00
28935;BME280;16044;52.726;-2.108;2023-09-12T03:40:13;100250.81;;;17.29;100.00
28935;BME280;16044;52.726;-2.108;2023-09-12T03:42:44;100256.78;;;17.26;100.00
28935;BME280;16044;52.726;-2.108;2023-09-12T03:45:17;100262.25;;;17.26;100.00
28935;BME280;16044;52.726;-2.108;2023-09-12T03:47:47;100258.44;;;17.27;100.00
28935;BME280;16044;52.726;-2.108;2023-09-12T03:50:18;100255.69;;;17.27;100.00
28935;BME280;16044;52.726;-2.108;2023-09-12T03:52:48;100251.19;;;17.33;100.00
28935;BME280;16044;52.726;-2.108;2023-09-12T03:55:18;100254.81;;;17.33;100.00
28935;BME280;16044;52.726;-2.108;2023-09-12T03:57:49;100244.91;;;17.32;100.00
28935;BME280;16044;52.726;-2.108;2023-09-12T04:00:22;100252.91;;;17.34;100.00
28935;BME280;16044;52.726;-2.108;2023-09-12T04:02:52;100250.38;;;17.32;100.00
28935;BME280;16044;52.726;-2.108;2023-09-12T04:05:24;100254.16;;;17.31;100.00
28935;BME280;16044;52.726;-2.108;2023-09-12T04:07:54;100241.09;;;17.33;100.00
28935;BME280;16044;52.726;-2.108;2023-09-12T04:10:25;100250.16;;;17.34;100.00
28935;BME280;16044;52.726;-2.108;2023-09-12T04:12:55;100244.69;;;17.34;100.00
28935;BME280;16044;52.726;-2.108;2023-09-12T04:15:28;100245.34;;;17.29;100.00
28935;BME280;16044;52.726;-2.108;2023-09-12T04:17:58;100245.50;;;17.34;100.00
28935;BME280;16044;52.726;-2.108;2023-09-12T04:20:29;100245.72;;;17.33;100.00
28935;BME280;16044;52.726;-2.108;2023-09-12T04:23:00;100242.97;;;17.33;100.00
28935;BME280;16044;52.726;-2.108;2023-09-12T04:25:32;100240.84;;;17.35;100.00
28935;BME280;16044;52.726;-2.108;2023-09-12T04:28:03;100244.91;;;17.32;100.00
28935;BME280;16044;52.726;-2.108;2023-09-12T04:30:36;100237.28;;;17.34;100.00
28935;BME280;16044;52.726;-2.108;2023-09-12T04:33:09;100240.34;;;17.26;100.00
28935;BME280;16044;52.726;-2.108;2023-09-12T04:35:39;100235.63;;;17.33;100.00
28935;BME280;16044;52.726;-2.108;2023-09-12T04:38:10;100234.53;;;17.34;100.00
28935;BME280;16044;52.726;-2.108;2023-09-12T04:40:42;100234.31;;;17.36;100.00
28935;BME280;16044;52.726;-2.108;2023-09-12T04:43:12;100235.63;;;17.33;100.00
28935;BME280;16044;52.726;-2.108;2023-09-12T04:45:45;100237.28;;;17.34;100.00
28935;BME280;16044;52.726;-2.108;2023-09-12T04:48:15;100228.84;;;17.36;100.00
28935;BME280;16044;52.726;-2.108;2023-09-12T04:50:46;100238.97;;;17.36;100.00
28935;BME280;16044;52.726;-2.108;2023-09-12T04:53:16;100235.63;;;17.33;100.00
28935;BME280;16044;52.726;-2.108;2023-09-12T04:55:46;100229.06;;;17.34;100.00
28935;BME280;16044;52.726;-2.108;2023-09-12T04:58:17;100238.38;;;17.33;100.00
28935;BME280;16044;52.726;-2.108;2023-09-12T05:00:50;100239.41;;;17.32;100.00
28935;BME280;16044;52.726;-2.108;2023-09-12T05:03:20;100242.75;;;17.34;100.00
28935;BME280;16044;52.726;-2.108;2023-09-12T05:05:53;100246.59;;;17.33;100.00
28935;BME280;16044;52.726;-2.108;2023-09-12T05:08:25;100245.72;;;17.33;100.00
28935;BME280;16044;52.726;-2.108;2023-09-12T05:10:56;100243.84;;;17.33;100.00
28935;BME280;16044;52.726;-2.108;2023-09-12T05:13:26;100249.22;;;17.40;100.00
28935;BME280;16044;52.726;-2.108;2023-09-12T05:15:59;100247.78;;;17.38;100.00
28935;BME280;16044;52.726;-2.108;2023-09-12T05:18:29;100257.69;;;17.39;100.00
28935;BME280;16044;52.726;-2.108;2023-09-12T05:20:59;100257.84;;;17.44;100.00
28935;BME280;16044;52.726;-2.108;2023-09-12T05:23:31;100246.72;;;17.39;100.00
28935;BME280;16044;52.726;-2.108;2023-09-12T05:26:01;100254.94;;;17.39;100.00
28935;BME280;16044;52.726;-2.108;2023-09-12T05:28:33;100253.06;;;17.39;100.00
28935;BME280;16044;52.726;-2.108;2023-09-12T05:31:06;100252.41;;;17.37;100.00
28935;BME280;16044;52.726;-2.108;2023-09-12T05:33:37;100256.84;;;17.38;100.00
28935;BME280;16044;52.726;-2.108;2023-09-12T05:36:08;100249.94;;;17.36;100.00
28935;BME280;16044;52.726;-2.108;2023-09-12T05:38:38;100263.84;;;17.34;100.00
28935;BME280;16044;52.726;-2.108;2023-09-12T05:41:09;100254.81;;;17.33;100.00
28935;BME280;16044;52.726;-2.108;2023-09-12T05:43:39;100251.41;;;17.31;100.00
28935;BME280;16044;52.726;-2.108;2023-09-12T05:46:12;100255.84;;;17.32;100.00
28935;BME280;16044;52.726;-2.108;2023-09-12T05:48:42;100257.53;;;17.33;100.00
28935;BME280;16044;52.726;-2.108;2023-09-12T05:51:13;100261.34;;;17.32;100.00
28935;BME280;16044;52.726;-2.108;2023-09-12T05:53:43;100254.84;;;17.27;100.00
28935;BME280;16044;52.726;-2.108;2023-09-12T05:56:14;100255.47;;;17.29;100.00
28935;BME280;16044;52.726;-2.108;2023-09-12T05:58:44;100254.16;;;17.31;100.00
28935;BME280;16044;52.726;-2.108;2023-09-12T06:01:19;100264.28;;;17.31;100.00
28935;BME280;16044;52.726;-2.108;2023-09-12T06:03:50;100264.50;;;17.29;100.00
28935;BME280;16044;52.726;-2.108;2023-09-12T06:06:21;100263.47;;;17.30;100.00
28935;BME280;16044;52.726;-2.108;2023-09-12T06:08:51;100268.13;;;17.30;100.00
28935;BME280;16044;52.726;-2.108;2023-09-12T06:11:23;100253.81;;;17.28;100.00
28935;BME280;16044;52.726;-2.108;2023-09-12T06:13:53;100260.94;;;17.29;100.00
28935;BME280;16044;52.726;-2.108;2023-09-12T06:16:26;100258.44;;;17.27;100.00
28935;BME280;16044;52.726;-2.108;2023-09-12T06:18:57;100262.63;;;17.30;100.00
28935;BME280;16044;52.726;-2.108;2023-09-12T06:21:27;100263.91;;;17.27;100.00
28935;BME280;16044;52.726;-2.108;2023-09-12T06:24:09;100267.72;;;17.26;100.00
28935;BME280;16044;52.726;-2.108;2023-09-12T06:26:40;100259.66;;;17.31;100.00
28935;BME280;16044;52.726;-2.108;2023-09-12T06:29:11;100275.72;;;17.28;100.00
28935;BME280;16044;52.726;-2.108;2023-09-12T06:31:44;100265.13;;;17.31;100.00
28935;BME280;16044;52.726;-2.108;2023-09-12T06:34:14;100272.50;;;17.31;100.00
28935;BME280;16044;52.726;-2.108;2023-09-12T06:36:44;100267.84;;;17.31;100.00
28935;BME280;16044;52.726;-2.108;2023-09-12T06:39:15;100267.41;;;17.34;100.00
28935;BME280;16044;52.726;-2.108;2023-09-12T06:41:45;100277.78;;;17.32;100.00
28935;BME280;16044;52.726;-2.108;2023-09-12T06:44:15;100273.97;;;17.33;100.00
28935;BME280;16044;52.726;-2.108;2023-09-12T06:46:48;100275.63;;;17.34;100.00
28935;BME280;16044;52.726;-2.108;2023-09-12T06:49:19;100271.38;;;17.39;100.00
28935;BME280;16044;52.726;-2.108;2023-09-12T06:51:49;100277.72;;;17.39;100.00
28935;BME280;16044;52.726;-2.108;2023-09-12T06:54:19;100277.72;;;17.39;100.00
28935;BME280;16044;52.726;-2.108;2023-09-12T06:56:50;100280.44;;;17.39;100.00
28935;BME280;16044;52.726;-2.108;2023-09-12T06:59:20;100287.38;;;17.42;100.00
28935;BME280;16044;52.726;-2.108;2023-09-12T07:01:53;100277.63;;;17.46;100.00
28935;BME280;16044;52.726;-2.108;2023-09-12T07:04:23;100283.09;;;17.46;100.00
28935;BME280;16044;52.726;-2.108;2023-09-12T07:06:54;100280.53;;;17.51;100.00
28935;BME280;16044;52.726;-2.108;2023-09-12T07:09:24;100281.59;;;17.50;100.00
28935;BME280;16044;52.726;-2.108;2023-09-12T07:11:54;100284.72;;;17.53;100.00
28935;BME280;16044;52.726;-2.108;2023-09-12T07:14:25;100280.06;;;17.54;100.00
28935;BME280;16044;52.726;-2.108;2023-09-12T07:16:59;100287.84;;;17.57;100.00
28935;BME280;16044;52.726;-2.108;2023-09-12T07:19:31;100282.34;;;17.57;100.00
28935;BME280;16044;52.726;-2.108;2023-09-12T07:22:03;100285.09;;;17.57;100.00
28935;BME280;16044;52.726;-2.108;2023-09-12T07:24:33;100280.44;;;17.58;100.00
28935;BME280;16044;52.726;-2.108;2023-09-12T07:27:04;100287.22;;;17.55;100.00
28935;BME280;16044;52.726;-2.108;2023-09-12T07:29:34;100296.06;;;17.57;100.00
28935;BME280;16044;52.726;-2.108;2023-09-12T07:32:07;100290.56;;;17.57;100.00
28935;BME280;16044;52.726;-2.108;2023-09-12T07:34:38;100296.88;;;17.58;100.00
28935;BME280;16044;52.726;-2.108;2023-09-12T07:37:12;100291.66;;;17.56;100.00
28935;BME280;16044;52.726;-2.108;2023-09-12T07:39:42;100301.31;;;17.59;100.00
28935;BME280;16044;52.726;-2.108;2023-09-12T07:42:13;100299.56;;;17.64;100.00
28935;BME280;16044;52.726;-2.108;2023-09-12T07:44:43;100298.34;;;17.60;100.00
28935;BME280;16044;52.726;-2.108;2023-09-12T07:47:16;100303.13;;;17.65;100.00
28935;BME280;16044;52.726;-2.108;2023-09-12T07:49:52;100305.22;;;17.69;100.00
28935;BME280;16044;52.726;-2.108;2023-09-12T07:52:23;100306.44;;;17.73;100.00
28935;BME280;16044;52.726;-2.108;2023-09-12T07:54:59;100300.94;;;17.73;100.00
28935;BME280;16044;52.726;-2.108;2023-09-12T07:57:30;100308.03;;;17.81;100.00
28935;BME280;16044;52.726;-2.108;2023-09-12T08:00:01;100308.84;;;17.82;100.00
28935;BME280;16044;52.726;-2.108;2023-09-12T08:02:40;100300.00;;;17.86;100.00
28935;BME280;16044;52.726;-2.108;2023-09-12T08:05:10;100305.59;;;17.91;100.00
28935;BME280;16044;52.726;-2.108;2023-09-12T08:07:41;100305.66;;;18.03;100.00
28935;BME280;16044;52.726;-2.108;2023-09-12T08:10:11;100309.38;;;18.09;100.00
28935;BME280;16044;52.726;-2.108;2023-09-12T08:12:42;100306.78;;;18.14;100.00
28935;BME280;16044;52.726;-2.108;2023-09-12T08:15:12;100308.38;;;18.22;100.00
28935;BME280;16044;52.726;-2.108;2023-09-12T08:17:45;100302.97;;;18.34;100.00
28935;BME280;16044;52.726;-2.108;2023-09-12T08:20:19;100306.19;;;18.42;100.00
28935;BME280;16044;52.726;-2.108;2023-09-12T08:22:50;100315.19;;;18.49;100.00
28935;BME280;16044;52.726;-2.108;2023-09-12T08:25:20;100314.22;;;18.56;100.00
28935;BME280;16044;52.726;-2.108;2023-09-12T08:27:51;100312.84;;;18.65;100.00
28935;BME280;16044;52.726;-2.108;2023-09-12T08:30:22;100310.84;;;18.72;100.00
28935;BME280;16044;52.726;-2.108;2023-09-12T08:32:55;100315.53;;;18.83;100.00
28935;BME280;16044;52.726;-2.108;2023-09-12T08:35:26;100319.13;;;18.96;100.00
28935;BME280;16044;52.726;-2.108;2023-09-12T08:37:56;100313.09;;;19.05;100.00
28935;BME280;16044;52.726;-2.108;2023-09-12T08:40:26;100322.28;;;19.11;100.00
28935;BME280;16044;52.726;-2.108;2023-09-12T08:42:57;100320.13;;;19.13;100.00
28935;BME280;16044;52.726;-2.108;2023-09-12T08:45:28;100317.03;;;19.21;100.00
28935;BME280;16044;52.726;-2.108;2023-09-12T08:48:01;100320.38;;;19.23;100.00
28935;BME280;16044;52.726;-2.108;2023-09-12T08:50:34;100321.69;;;19.33;100.00
28935;BME280;16044;52.726;-2.108;2023-09-12T08:53:05;100322.75;;;19.32;100.00
28935;BME280;16044;52.726;-2.108;2023-09-12T08:55:35;100332.44;;;19.34;100.00
28935;BME280;16044;52.726;-2.108;2023-09-12T08:58:06;100331.59;;;19.34;100.00
28935;BME280;16044;52.726;-2.108;2023-09-12T09:00:36;100317.63;;;19.35;100.00
28935;BME280;16044;52.726;-2.108;2023-09-12T09:03:10;100329.94;;;19.33;100.00
28935;BME280;16044;52.726;-2.108;2023-09-12T09:05:43;100325.50;;;19.32;100.00
28935;BME280;16044;52.726;-2.108;2023-09-12T09:08:15;100327.28;;;19.26;100.00
28935;BME280;16044;52.726;-2.108;2023-09-12T09:10:56;100330.16;;;19.19;100.00
28935;BME280;16044;52.726;-2.108;2023-09-12T09:13:29;100333.59;;;19.15;100.00
28935;BME280;16044;52.726;-2.108;2023-09-12T09:16:13;100338.63;;;19.06;100.00
28935;BME280;16044;52.726;-2.108;2023-09-12T09:18:55;100335.16;;;18.99;100.00
28935;BME280;16044;52.726;-2.108;2023-09-12T09:21:29;100343.63;;;18.97;100.00
28935;BME280;16044;52.726;-2.108;2023-09-12T09:24:03;100348.50;;;18.83;100.00
28935;BME280;16044;52.726;-2.108;2023-09-12T09:26:44;100359.34;;;18.60;100.00
28935;BME280;16044;52.726;-2.108;2023-09-12T09:29:16;100352.78;;;18.49;100.00
28935;BME280;16044;52.726;-2.108;2023-09-12T09:31:49;100357.03;;;18.45;100.00
28935;BME280;16044;52.726;-2.108;2023-09-12T09:34:23;100360.94;;;18.37;100.00
28935;BME280;16044;52.726;-2.108;2023-09-12T09:36:57;100359.88;;;18.38;100.00
28935;BME280;16044;52.726;-2.108;2023-09-12T09:39:28;100367.44;;;18.24;100.00
28935;BME280;16044;52.726;-2.108;2023-09-12T09:41:58;100358.53;;;18.10;100.00
28935;BME280;16044;52.726;-2.108;2023-09-12T09:44:29;100357.63;;;17.98;100.00
28935;BME280;16044;52.726;-2.108;2023-09-12T09:47:01;100359.66;;;17.84;100.00
28935;BME280;16044;52.726;-2.108;2023-09-12T09:49:35;100367.13;;;17.77;100.00
28935;BME280;16044;52.726;-2.108;2023-09-12T09:52:06;100372.28;;;17.67;100.00
28935;BME280;16044;52.726;-2.108;2023-09-12T09:54:43;100368.63;;;17.54;100.00
28935;BME280;16044;52.726;-2.108;2023-09-12T09:57:14;100372.00;;;17.50;100.00
28935;BME280;16044;52.726;-2.108;2023-09-12T09:59:49;100372.09;;;17.43;100.00
28935;BME280;16044;52.726;-2.108;2023-09-12T10:02:22;100378.63;;;17.42;100.00
28935;BME280;16044;52.726;-2.108;2023-09-12T10:04:58;100382.47;;;17.34;100.00
28935;BME280;16044;52.726;-2.108;2023-09-12T10:07:32;100387.75;;;17.36;100.00
28935;BME280;16044;52.726;-2.108;2023-09-12T10:10:04;100390.09;;;17.32;100.00
28935;BME280;16044;52.726;-2.108;2023-09-12T10:12:35;100394.53;;;17.33;100.00
28935;BME280;16044;52.726;-2.108;2023-09-12T10:15:08;100392.91;;;17.26;100.00
28935;BME280;16044;52.726;-2.108;2023-09-12T10:17:41;100400.19;;;17.07;100.00
28935;BME280;16044;52.726;-2.108;2023-09-12T10:20:20;100407.47;;;17.20;100.00
28935;BME280;16044;52.726;-2.108;2023-09-12T10:22:59;100404.72;;;17.20;100.00
28935;BME280;16044;52.726;-2.108;2023-09-12T10:25:38;100399.47;;;17.18;100.00
28935;BME280;16044;52.726;-2.108;2023-09-12T10:28:10;100392.97;;;17.12;100.00
28935;BME280;16044;52.726;-2.108;2023-09-12T10:30:42;100406.31;;;17.09;100.00
28935;BME280;16044;52.726;-2.108;2023-09-12T10:33:13;100410.31;;;17.06;100.00
28935;BME280;16044;52.726;-2.108;2023-09-12T10:35:48;100409.28;;;17.01;100.00
28935;BME280;16044;52.726;-2.108;2023-09-12T10:38:21;100409.28;;;17.01;100.00
28935;BME280;16044;52.726;-2.108;2023-09-12T10:40:54;100413.72;;;17.02;100.00
28935;BME280;16044;52.726;-2.108;2023-09-12T10:43:26;100414.13;;;17.05;100.00
28935;BME280;16044;52.726;-2.108;2023-09-12T10:45:56;100410.09;;;17.08;100.00
28935;BME280;16044;52.726;-2.108;2023-09-12T10:48:29;100411.09;;;17.13;100.00
28935;BME280;16044;52.726;-2.108;2023-09-12T10:51:03;100407.75;;;17.11;100.00
28935;BME280;16044;52.726;-2.108;2023-09-12T10:53:35;100415.75;;;17.13;100.00
28935;BME280;16044;52.726;-2.108;2023-09-12T10:56:17;100417.69;;;17.06;100.00
28935;BME280;16044;52.726;-2.108;2023-09-12T10:59:13;100422.56;;;17.04;100.00
28935;BME280;16044;52.726;-2.108;2023-09-12T11:01:44;100421.31;;;17.00;100.00
28935;BME280;16044;52.726;-2.108;2023-09-12T11:04:31;100424.66;;;17.02;100.00
28935;BME280;16044;52.726;-2.108;2023-09-12T11:07:44;100430.56;;;16.99;100.00
28935;BME280;16044;52.726;-2.108;2023-09-12T11:10:19;100421.31;;;17.00;100.00
28935;BME280;16044;52.726;-2.108;2023-09-12T11:12:52;100419.41;;;17.00;100.00
28935;BME280;16044;52.726;-2.108;2023-09-12T11:15:25;100423.38;;;17.04;100.00
28935;BME280;16044;52.726;-2.108;2023-09-12T11:18:02;100424.00;;;17.06;100.00
28935;BME280;16044;52.726;-2.108;2023-09-12T11:20:50;100429.25;;;17.08;100.00
28935;BME280;16044;52.726;-2.108;2023-09-12T11:23:25;100430.28;;;17.13;100.00
28935;BME280;16044;52.726;-2.108;2023-09-12T11:26:04;100433.41;;;17.17;100.00
28935;BME280;16044;52.726;-2.108;2023-09-12T11:28:38;100435.03;;;17.25;100.00
28935;BME280;16044;52.726;-2.108;2023-09-12T11:31:11;100440.91;;;17.28;100.00
28935;BME280;16044;52.726;-2.108;2023-09-12T11:33:43;100445.94;;;17.31;100.00
28935;BME280;16044;52.726;-2.108;2023-09-12T11:36:14;100440.00;;;17.34;100.00
28935;BME280;16044;52.726;-2.108;2023-09-12T11:38:49;100441.09;;;17.33;100.00
28935;BME280;16044;52.726;-2.108;2023-09-12T11:41:40;100434.97;;;17.31;100.00
28935;BME280;16044;52.726;-2.108;2023-09-12T11:44:11;100432.22;;;17.31;100.00
28935;BME280;16044;52.726;-2.108;2023-09-12T11:46:43;100440.94;;;17.22;100.00
28935;BME280;16044;52.726;-2.108;2023-09-12T11:49:14;100438.06;;;17.17;100.00
28935;BME280;16044;52.726;-2.108;2023-09-12T11:51:49;100427.75;;;17.12;100.00
28935;BME280;16044;52.726;-2.108;2023-09-12T11:54:25;100428.56;;;17.12;100.00
28935;BME280;16044;52.726;-2.108;2023-09-12T11:56:56;100424.78;;;17.13;100.00
28935;BME280;16044;52.726;-2.108;2023-09-12T11:59:27;100432.59;;;17.17;100.00
28935;BME280;16044;52.726;-2.108;2023-09-12T12:01:58;100426.25;;;17.16;100.00
28935;BME280;16044;52.726;-2.108;2023-09-12T12:04:29;100432.47;;;17.30;100.00
28935;BME280;16044;52.726;-2.108;2023-09-12T12:06:59;100446.72;;;17.39;100.00
28935;BME280;16044;52.726;-2.108;2023-09-12T12:09:33;100441.19;;;17.45;100.00
28935;BME280;16044;52.726;-2.108;2023-09-12T12:12:09;100456.72;;;17.58;100.00
28935;BME280;16044;52.726;-2.108;2023-09-12T12:14:41;100453.88;;;17.65;100.00
28935;BME280;16044;52.726;-2.108;2023-09-12T12:17:15;100458.25;;;17.72;100.00
28935;BME280;16044;52.726;-2.108;2023-09-12T12:19:46;100462.91;;;17.72;100.00
28935;BME280;16044;52.726;-2.108;2023-09-12T12:22:16;100458.84;;;17.74;100.00
28935;BME280;16044;52.726;-2.108;2023-09-12T12:24:49;100456.59;;;17.71;100.00
28935;BME280;16044;52.726;-2.108;2023-09-12T12:27:21;100465.69;;;17.65;100.00
28935;BME280;16044;52.726;-2.108;2023-09-12T12:29:51;100458.38;;;17.59;100.00
28935;BME280;16044;52.726;-2.108;2023-09-12T12:32:21;100455.91;;;17.51;100.00
28935;BME280;16044;52.726;-2.108;2023-09-12T12:34:51;100462.91;;;17.47;100.00
28935;BME280;16044;52.726;-2.108;2023-09-12T12:37:28;100466.81;;;17.32;100.00
28935;BME280;16044;52.726;-2.108;2023-09-12T12:40:03;100456.66;;;17.33;100.00
28935;BME280;16044;52.726;-2.108;2023-09-12T12:42:37;100460.53;;;17.25;100.00
28935;BME280;16044;52.726;-2.108;2023-09-12T12:45:22;100469.66;;;17.12;100.00
28935;BME280;16044;52.726;-2.108;2023-09-12T12:47:58;100474.78;;;17.02;100.00
28935;BME280;16044;52.726;-2.108;2023-09-12T12:50:29;100476.50;;;16.97;100.00
28935;BME280;16044;52.726;-2.108;2023-09-12T12:52:59;100469.78;;;16.92;100.00
28935;BME280;16044;52.726;-2.108;2023-09-12T12:55:33;100478.03;;;16.86;100.00
28935;BME280;16044;52.726;-2.108;2023-09-12T12:58:03;100484.13;;;16.81;100.00